createdAt,value
2023-11-24T00:01:10.235Z,8.20
2023-11-24T00:06:14.245Z,8.30
2023-11-24T00:11:16.502Z,9.20
2023-11-24T00:16:18.720Z,4.70
2023-11-24T00:21:21.255Z,6.70
2023-11-24T00:26:23.247Z,7.80
2023-11-24T00:31:32.556Z,7.10
2023-11-24T00:36:35.453Z,6.70
2023-11-24T00:41:37.458Z,6.80
2023-11-24T00:46:39.479Z,6.70
2023-11-24T00:51:41.504Z,7.20
2023-11-24T00:56:43.523Z,6.20
2023-11-24T01:01:45.592Z,6.50
2023-11-24T01:06:47.569Z,4.90
2023-11-24T01:11:50.144Z,7.50
2023-11-24T01:16:52.211Z,1.80
2023-11-24T01:24:49.026Z,0.40
2023-11-24T01:29:54.403Z,2.00
2023-11-24T01:40:01.946Z,1.10
2023-11-24T01:45:10.796Z,1.00
2023-11-24T01:50:13.042Z,3.50
2023-11-24T01:55:17.395Z,1.00
2023-11-24T02:00:20.169Z,0.60
2023-11-24T02:05:23.047Z,0.70
2023-11-24T02:10:25.229Z,2.40
2023-11-24T02:15:27.443Z,1.40
2023-11-24T02:20:34.510Z,0.50
2023-11-24T02:25:36.600Z,3.80
2023-11-24T02:30:38.836Z,2.00
2023-11-24T02:35:43.723Z,1.30
2023-11-24T02:40:45.811Z,2.70
2023-11-24T02:45:48.039Z,5.50
2023-11-24T02:50:50.323Z,1.60
2023-11-24T02:55:52.568Z,1.30
2023-11-24T03:00:54.879Z,0.60
2023-11-24T03:05:57.244Z,0.70
2023-11-24T03:10:59.849Z,0.60
2023-11-24T03:16:07.536Z,2.60
2023-11-24T03:21:09.494Z,2.40
2023-11-24T03:26:12.127Z,2.50
2023-11-24T03:31:14.215Z,1.00
2023-11-24T03:36:17.636Z,3.20
2023-11-24T03:41:19.599Z,2.70
2023-11-24T03:46:22.254Z,2.20
2023-11-24T03:51:24.333Z,2.90
2023-11-24T03:56:26.881Z,2.00
2023-11-24T04:01:29.357Z,2.80
2023-11-24T04:06:31.887Z,2.90
2023-11-24T04:11:34.261Z,1.60
2023-11-24T04:16:37.869Z,2.50
2023-11-24T04:21:42.227Z,4.40
2023-11-24T04:26:44.763Z,1.50
2023-11-24T04:31:46.871Z,4.50
2023-11-24T04:36:49.306Z,2.40
2023-11-24T04:41:51.342Z,2.00
2023-11-24T04:46:53.719Z,2.30
2023-11-24T04:57:19.709Z,2.00
2023-11-24T05:07:19.270Z,3.60
2023-11-24T05:12:21.277Z,3.60
2023-11-24T05:17:23.274Z,1.90
2023-11-24T05:22:25.413Z,3.00
2023-11-24T05:27:27.504Z,3.40
2023-11-24T05:32:29.486Z,1.50
2023-11-24T05:37:35.585Z,5.20
2023-11-24T05:42:42.123Z,3.90
2023-11-24T05:47:44.149Z,4.10
2023-11-24T05:52:46.174Z,5.10
2023-11-24T05:57:51.835Z,2.50
2023-11-24T06:07:59.456Z,2.50
2023-11-24T06:28:16.529Z,6.00
2023-11-24T06:38:27.057Z,8.70
2023-11-24T06:43:29.759Z,11.70
2023-11-24T06:53:55.614Z,16.00
2023-11-24T06:58:57.721Z,20.30
2023-11-24T07:04:04.434Z,15.30
2023-11-24T07:09:07.551Z,18.30
2023-11-24T07:19:19.240Z,11.40
2023-11-24T07:24:21.451Z,8.00
2023-11-24T07:50:52.762Z,14.30
2023-11-24T08:39:09.448Z,6.60
2023-11-24T08:44:12.748Z,8.20
2023-11-24T08:49:14.141Z,7.70
2023-11-24T08:54:15.527Z,10.70
2023-11-24T08:59:16.945Z,7.00
2023-11-24T09:04:22.795Z,10.40
2023-11-24T09:09:24.439Z,8.20
2023-11-24T09:14:25.717Z,8.30
2023-11-24T09:19:27.103Z,12.50
2023-11-24T09:24:28.635Z,8.30
2023-11-24T09:29:30.265Z,11.10
2023-11-24T09:39:33.491Z,7.50
2023-11-24T09:44:36.487Z,9.30
2023-11-24T09:49:40.864Z,9.60
2023-11-24T09:54:43.237Z,8.30
2023-11-24T09:59:44.571Z,5.70
2023-11-24T10:04:45.843Z,11.40
2023-11-24T10:09:51.260Z,4.30
2023-11-24T10:14:54.844Z,7.50
2023-11-24T10:19:56.058Z,11.80
2023-11-24T10:24:59.220Z,4.70
2023-11-24T10:30:00.440Z,7.00
2023-11-24T10:35:01.864Z,7.80
2023-11-24T10:40:09.722Z,8.20
2023-11-24T10:45:12.134Z,11.50
2023-11-24T10:50:16.816Z,7.60
2023-11-24T10:55:18.276Z,7.60
2023-11-24T11:05:28.578Z,7.50
2023-11-24T11:10:36.786Z,3.10
2023-11-24T11:15:41.378Z,4.00
2023-11-24T11:20:45.261Z,1.90
2023-11-24T11:25:51.273Z,4.50
2023-11-24T11:31:00.144Z,4.70
2023-11-24T11:36:05.929Z,2.30
2023-11-24T11:41:07.300Z,2.30
2023-11-24T11:46:10.583Z,1.50
2023-11-24T11:51:17.248Z,2.40
2023-11-24T11:56:21.522Z,2.30
2023-11-24T12:01:23.080Z,3.40
2023-11-24T12:06:25.281Z,4.20
2023-11-24T12:11:27.388Z,2.30
2023-11-24T12:16:33.097Z,4.30
2023-11-24T12:21:38.764Z,2.80
2023-11-24T12:26:40.256Z,4.50
2023-11-24T12:31:42.940Z,7.30
2023-11-24T12:36:45.328Z,1.80
2023-11-24T12:41:47.284Z,3.60
2023-11-24T12:46:49.209Z,6.20
2023-11-24T12:51:50.729Z,2.70
2023-11-24T12:56:52.670Z,3.70
2023-11-24T13:01:54.626Z,4.80
2023-11-24T13:06:56.122Z,3.30
2023-11-24T13:12:00.400Z,2.70
2023-11-24T13:17:05.293Z,2.20
2023-11-24T13:22:09.878Z,5.30
2023-11-24T13:27:11.271Z,4.90
2023-11-24T13:32:12.632Z,7.10
2023-11-24T13:37:14.045Z,6.70
2023-11-24T13:42:17.037Z,7.80
2023-11-24T13:47:18.288Z,8.20
2023-11-24T13:52:19.676Z,8.10
2023-11-24T13:57:20.944Z,5.40
2023-11-24T14:02:22.569Z,4.70
2023-11-24T14:07:25.452Z,9.00
2023-11-24T14:12:27.124Z,9.60
2023-11-24T14:22:30.018Z,4.40
2023-11-24T14:32:33.147Z,5.30
2023-11-24T14:37:34.459Z,5.00
2023-11-24T14:42:35.996Z,2.00
2023-11-24T14:52:38.754Z,6.30
2023-11-24T14:57:40.138Z,5.70
2023-11-24T15:07:47.518Z,4.10
2023-11-24T15:12:49.320Z,6.00
2023-11-24T15:22:58.811Z,3.80
2023-11-24T15:28:02.945Z,6.50
2023-11-24T15:33:04.405Z,3.30
2023-11-24T15:38:05.689Z,5.70
2023-11-24T15:43:07.028Z,8.30
2023-11-24T15:48:09.039Z,11.00
2023-11-24T15:53:13.530Z,8.20
2023-11-24T15:58:15.470Z,8.40
2023-11-24T16:03:18.141Z,12.10
2023-11-24T16:08:21.510Z,15.80
2023-11-24T16:13:26.133Z,21.70
2023-11-24T16:18:35.050Z,18.80
2023-11-24T16:23:33.452Z,16.40
2023-11-24T16:28:34.768Z,59.80
2023-11-24T16:33:38.064Z,46.00
2023-11-24T16:38:40.267Z,70.60
2023-11-24T16:43:41.910Z,89.30
2023-11-24T16:48:46.689Z,80.90
2023-11-24T16:53:48.242Z,56.20
2023-11-24T16:58:49.572Z,119.90
2023-11-24T17:03:50.979Z,100.90
2023-11-24T17:13:54.862Z,64.80
2023-11-24T17:18:57.422Z,44.30
2023-11-24T17:23:58.964Z,29.40
2023-11-24T17:29:02.624Z,29.80
2023-11-24T17:34:04.093Z,87.90
2023-11-24T17:44:12.758Z,89.40
2023-11-24T17:49:17.702Z,57.50
2023-11-24T17:54:21.731Z,64.50
2023-11-24T17:59:23.742Z,65.40
2023-11-24T18:04:25.207Z,57.10
2023-11-24T18:09:26.682Z,43.20
2023-11-24T18:14:28.028Z,40.80
2023-11-24T18:19:29.379Z,38.60
2023-11-24T18:24:30.706Z,39.70
2023-11-24T18:29:32.020Z,58.30
2023-11-24T18:39:37.561Z,63.50
2023-11-24T18:44:39.320Z,84.80
2023-11-24T18:49:46.083Z,88.00
2023-11-24T18:54:49.306Z,67.70
2023-11-24T18:59:51.390Z,58.60
2023-11-24T19:04:55.967Z,54.10
2023-11-24T19:15:08.819Z,75.20
2023-11-24T19:20:13.136Z,74.30
2023-11-24T19:25:15.973Z,75.50
2023-11-24T19:30:17.470Z,93.00
2023-11-24T19:40:20.681Z,65.10
2023-11-24T19:55:26.337Z,58.40
2023-11-24T20:05:31.134Z,52.30
2023-11-24T20:10:34.960Z,74.90
2023-11-24T20:15:36.432Z,85.30
2023-11-24T20:20:41.684Z,87.40
2023-11-24T20:25:43.152Z,91.90
2023-11-24T20:30:45.335Z,68.40
2023-11-24T20:35:46.910Z,51.90
2023-11-24T20:40:52.263Z,39.10
2023-11-24T20:45:54.274Z,39.00
2023-11-24T20:50:57.413Z,48.60
2023-11-24T20:56:00.043Z,34.20
2023-11-24T21:01:01.716Z,21.70
2023-11-24T21:06:03.902Z,31.70
2023-11-24T21:11:05.371Z,38.60
2023-11-24T21:16:07.696Z,42.00
2023-11-24T21:21:09.840Z,43.70
2023-11-24T21:26:11.549Z,44.00
2023-11-24T21:36:19.876Z,34.70
2023-11-24T21:41:21.891Z,36.00
2023-11-24T21:46:23.898Z,36.50
2023-11-24T21:51:26.112Z,26.40
2023-11-24T21:56:29.497Z,25.20
2023-11-24T22:01:33.209Z,34.70
2023-11-24T22:06:40.969Z,27.90
2023-11-24T22:11:42.447Z,23.70
2023-11-24T22:16:44.739Z,25.50
2023-11-24T22:21:46.540Z,29.50
2023-11-24T22:31:49.358Z,25.10
2023-11-24T22:41:53.089Z,24.50
2023-11-24T22:51:56.668Z,35.40
2023-11-24T22:56:57.921Z,27.40
2023-11-24T23:02:00.113Z,23.70
2023-11-24T23:07:01.797Z,25.70
2023-11-24T23:12:03.328Z,28.90
2023-11-24T23:17:06.335Z,34.60
2023-11-24T23:22:09.351Z,25.60
2023-11-24T23:27:13.671Z,35.50
2023-11-24T23:32:16.826Z,32.20
2023-11-24T23:37:18.754Z,28.00
2023-11-24T23:42:20.125Z,25.60
2023-11-24T23:47:22.241Z,23.00
2023-11-24T23:52:23.704Z,21.00
2023-11-24T23:57:25.731Z,24.60
